Архив погоды в Дальнереченске

Метеограмма Дальнереченск
Вторник, 14 Августа
Время местн. Темп Ветер Видим Явления Облачность нижн/средн/верх Атм. давл. Влжн Точка росы ВНГО R Сост. почвы Tg s
Напр Скр Прв ур.ст ур.м изм
22:00 +20.4° С 1 - 10 км - облачно 751 760 +0.7 84% +17.6° - - - - -
19:00 +23.5° штиль 0 - 20 км - облачно 750 759 +0.4 74% +18.5° 1 км 0 - - -
16:00 +25.9° В 1 - 20 км - облачно 750 759 -0.6 51% +15° - - - - -
13:00 +23.6° С,С-В 1 - 20 км - облачно 751 759 +0.3 66% +16.8° - - - - -
10:00 +18.6° В 1 - 20 км - облачно 750 759 +0.2 85% +16.1° - - - - -
07:00 +15.2° штиль 0 - 20 км - облачно 750 759 +0.4 93% +14° - 0 Сухая (без трещин) - -
04:00 +15.8° З 1 - 10 км - облачно 750 759 +0.2 93% +14.7° более 2.5 км - - - -
01:00 +16.8° З 1 - 10 км - облачно 750 759 +0.1 90% +15.2° более 2.5 км - - - -
Понедельник, 13 Августа
Время местн. Темп Ветер Видим Явления Облачность нижн/средн/верх Атм. давл. Влжн Точка росы ВНГО R Сост. почвы Tg s
Напр Скр Прв ур.ст ур.м изм
22:00 +18.9° З 1 - 10 км - облачно 750 758 +1.1 72% +13.8° более 2.5 км - - - -
19:00 +25.5° штиль 0 - 50 км - преимущественно облачно 748 757 -0.1 55% +15.7° более 2.5 км 0 - - -
16:00 +26.1° З 2 - 50 км - облачно 749 757 -0.5 49% +14.5° более 2.5 км - - - -
13:00 +25° С 2 - 50 км - преимущественно облачно 749 758 -0.4 55% +15.2° 1 км - - - -
10:00 +22.5° С-В 1 - 50 км - облачно 749 758 0 72% +17.2° 1 км - - - -
07:00 +16.3° С-В 1 - 50 км - облачно с прояснениями 749 758 +0.2 94% +15.4° 1 км 0 Влажная (без луж) - -
04:00 +14.8° штиль 0 - 10 км - ясно 749 758 -0.2 91% +13.3° более 2.5 км - - - -
01:00 +17° штиль 0 - 10 км - ясно 749 758 +0.5 87% +14.9° более 2.5 км - - - -
Воскресенье, 12 Августа
Время местн. Темп Ветер Видим Явления Облачность нижн/средн/верх Атм. давл. Влжн Точка росы ВНГО R Сост. почвы Tg s
Напр Скр Прв ур.ст ур.м изм
22:00 +18.8° штиль 0 - 10 км - преимущественно облачно 749 758 +0.8 78% +14.8° 1 км - - - -
19:00 +23.7° С-З 1 - 50 км - облачно с прояснениями 748 757 -0.1 57% +14.8° 1 км 0 - - -
16:00 +25.8° З 3 - 50 км - облачно с прояснениями 748 757 -0.5 52% +15.1° 1 км - - - -
13:00 +25.8° З 2 - более 50 км - преимущественно облачно 749 757 -0.2 55% +16.1° 1 км - - - -
10:00 +23.4° Ю-З 1 - 50 км небо без изменений {туман} облачно с прояснениями 749 758 +0.3 69% +17.3° 1 км - - - -
07:00 +17.4° З 1 - 0.2 км туман усиливается, небо видно облачно 749 757 +0.7 95% +16.6° более 2.5 км 0 Влажная (без луж) - -
04:00 +17.8° З 1 - 10 км - ясно 748 757 +0.1 95% +17° более 2.5 км - - - -
01:00 +18.4° штиль 0 - 10 км - переменная облачность 748 757 +0.6 94% +17.4° - - - - -
Суббота, 11 Августа
Время местн. Темп Ветер Видим Явления Облачность нижн/средн/верх Атм. давл. Влжн Точка росы ВНГО R Сост. почвы Tg s
Напр Скр Прв ур.ст ур.м изм
22:00 +19.8° штиль 0 - 10 км - облачно 747 756 +0.9 91% +18.3° 1 км - - - -
19:00 +23.5° З 2 - более 50 км - преимущественно облачно 746 755 +0.2 71% +18° 1 км 0.1 - - -